sensor_id;sensor_type;location;lat;lon;timestamp;P1;durP1;ratioP1;P2;durP2;ratioP2
72198;SDS011;60103;51.014;16.992;2023-04-27T00:00:04;15.00;;;3.90;;
72198;SDS011;60103;51.014;16.992;2023-04-27T00:02:58;13.40;;;4.60;;
72198;SDS011;60103;51.014;16.992;2023-04-27T00:05:27;15.10;;;4.50;;
72198;SDS011;60103;51.014;16.992;2023-04-27T00:07:56;15.90;;;4.70;;
72198;SDS011;60103;51.014;16.992;2023-04-27T00:10:25;13.40;;;4.00;;
72198;SDS011;60103;51.014;16.992;2023-04-27T00:12:54;12.20;;;4.80;;
72198;SDS011;60103;51.014;16.992;2023-04-27T00:15:23;12.90;;;5.40;;
72198;SDS011;60103;51.014;16.992;2023-04-27T00:17:52;15.20;;;5.20;;
72198;SDS011;60103;51.014;16.992;2023-04-27T00:20:22;10.30;;;4.30;;
72198;SDS011;60103;51.014;16.992;2023-04-27T00:22:50;12.10;;;4.20;;
72198;SDS011;60103;51.014;16.992;2023-04-27T00:25:20;12.20;;;4.90;;
72198;SDS011;60103;51.014;16.992;2023-04-27T00:27:49;16.50;;;5.00;;
72198;SDS011;60103;51.014;16.992;2023-04-27T00:30:18;13.20;;;4.40;;
72198;SDS011;60103;51.014;16.992;2023-04-27T00:32:47;14.60;;;4.80;;
72198;SDS011;60103;51.014;16.992;2023-04-27T00:35:16;13.40;;;4.40;;
72198;SDS011;60103;51.014;16.992;2023-04-27T00:37:45;13.40;;;4.70;;
72198;SDS011;60103;51.014;16.992;2023-04-27T00:40:13;15.20;;;4.70;;
72198;SDS011;60103;51.014;16.992;2023-04-27T00:42:42;15.90;;;5.70;;
72198;SDS011;60103;51.014;16.992;2023-04-27T00:45:11;13.10;;;4.50;;
72198;SDS011;60103;51.014;16.992;2023-04-27T00:47:41;14.60;;;5.00;;
72198;SDS011;60103;51.014;16.992;2023-04-27T00:50:11;15.70;;;4.90;;
72198;SDS011;60103;51.014;16.992;2023-04-27T00:52:40;15.00;;;5.40;;
72198;SDS011;60103;51.014;16.992;2023-04-27T00:55:09;14.50;;;5.20;;
72198;SDS011;60103;51.014;16.992;2023-04-27T00:57:40;12.90;;;4.80;;
72198;SDS011;60103;51.014;16.992;2023-04-27T01:00:10;12.30;;;4.60;;
72198;SDS011;60103;51.014;16.992;2023-04-27T01:02:40;14.30;;;5.10;;
72198;SDS011;60103;51.014;16.992;2023-04-27T01:05:10;17.40;;;6.10;;
72198;SDS011;60103;51.014;16.992;2023-04-27T01:07:39;16.30;;;5.60;;
72198;SDS011;60103;51.014;16.992;2023-04-27T01:10:09;16.70;;;5.90;;
72198;SDS011;60103;51.014;16.992;2023-04-27T01:12:37;17.30;;;6.20;;
72198;SDS011;60103;51.014;16.992;2023-04-27T01:15:08;17.90;;;6.20;;
72198;SDS011;60103;51.014;16.992;2023-04-27T01:17:39;16.20;;;5.50;;
72198;SDS011;60103;51.014;16.992;2023-04-27T01:20:08;17.00;;;5.60;;
72198;SDS011;60103;51.014;16.992;2023-04-27T01:22:38;13.40;;;4.90;;
72198;SDS011;60103;51.014;16.992;2023-04-27T01:25:07;11.40;;;3.80;;
72198;SDS011;60103;51.014;16.992;2023-04-27T01:27:37;12.30;;;4.30;;
72198;SDS011;60103;51.014;16.992;2023-04-27T01:30:06;13.20;;;4.60;;
72198;SDS011;60103;51.014;16.992;2023-04-27T01:32:38;12.10;;;3.80;;
72198;SDS011;60103;51.014;16.992;2023-04-27T01:35:07;13.20;;;5.10;;
72198;SDS011;60103;51.014;16.992;2023-04-27T01:37:37;13.40;;;4.30;;
72198;SDS011;60103;51.014;16.992;2023-04-27T01:40:06;12.70;;;4.80;;
72198;SDS011;60103;51.014;16.992;2023-04-27T01:42:35;11.70;;;4.60;;
72198;SDS011;60103;51.014;16.992;2023-04-27T01:45:05;12.20;;;4.80;;
72198;SDS011;60103;51.014;16.992;2023-04-27T01:47:34;14.70;;;5.50;;
72198;SDS011;60103;51.014;16.992;2023-04-27T01:50:03;17.20;;;5.50;;
72198;SDS011;60103;51.014;16.992;2023-04-27T01:52:33;15.20;;;5.50;;
72198;SDS011;60103;51.014;16.992;2023-04-27T01:55:02;17.60;;;5.80;;
72198;SDS011;60103;51.014;16.992;2023-04-27T01:57:32;13.60;;;4.80;;
72198;SDS011;60103;51.014;16.992;2023-04-27T02:00:01;14.40;;;4.80;;
72198;SDS011;60103;51.014;16.992;2023-04-27T02:02:47;13.80;;;4.80;;
72198;SDS011;60103;51.014;16.992;2023-04-27T02:05:18;14.40;;;4.60;;
72198;SDS011;60103;51.014;16.992;2023-04-27T02:07:47;16.20;;;6.00;;
72198;SDS011;60103;51.014;16.992;2023-04-27T02:10:16;14.40;;;5.30;;
72198;SDS011;60103;51.014;16.992;2023-04-27T02:12:45;15.20;;;5.20;;
72198;SDS011;60103;51.014;16.992;2023-04-27T02:15:14;14.00;;;5.00;;
72198;SDS011;60103;51.014;16.992;2023-04-27T02:17:43;14.20;;;4.70;;
72198;SDS011;60103;51.014;16.992;2023-04-27T02:20:12;15.50;;;4.70;;
72198;SDS011;60103;51.014;16.992;2023-04-27T02:22:42;17.60;;;5.00;;
72198;SDS011;60103;51.014;16.992;2023-04-27T02:25:11;13.40;;;5.10;;
72198;SDS011;60103;51.014;16.992;2023-04-27T02:27:42;12.90;;;5.00;;
72198;SDS011;60103;51.014;16.992;2023-04-27T02:30:12;13.40;;;4.90;;
72198;SDS011;60103;51.014;16.992;2023-04-27T02:32:41;15.10;;;5.40;;
72198;SDS011;60103;51.014;16.992;2023-04-27T02:35:11;14.60;;;5.80;;
72198;SDS011;60103;51.014;16.992;2023-04-27T02:37:40;14.00;;;5.20;;
72198;SDS011;60103;51.014;16.992;2023-04-27T02:40:09;16.40;;;5.60;;
72198;SDS011;60103;51.014;16.992;2023-04-27T02:42:38;15.10;;;5.40;;
72198;SDS011;60103;51.014;16.992;2023-04-27T02:45:10;12.90;;;5.10;;
72198;SDS011;60103;51.014;16.992;2023-04-27T02:47:40;14.30;;;5.50;;
72198;SDS011;60103;51.014;16.992;2023-04-27T02:50:09;12.90;;;4.50;;
72198;SDS011;60103;51.014;16.992;2023-04-27T02:52:38;16.80;;;4.70;;
72198;SDS011;60103;51.014;16.992;2023-04-27T02:55:08;15.80;;;4.80;;
72198;SDS011;60103;51.014;16.992;2023-04-27T02:57:37;12.40;;;4.40;;
72198;SDS011;60103;51.014;16.992;2023-04-27T03:00:06;12.50;;;4.20;;
72198;SDS011;60103;51.014;16.992;2023-04-27T03:02:37;13.60;;;4.60;;
72198;SDS011;60103;51.014;16.992;2023-04-27T03:05:06;15.00;;;5.30;;
72198;SDS011;60103;51.014;16.992;2023-04-27T03:07:36;15.60;;;5.00;;
72198;SDS011;60103;51.014;16.992;2023-04-27T03:10:05;13.10;;;4.90;;
72198;SDS011;60103;51.014;16.992;2023-04-27T03:12:34;13.00;;;4.90;;
72198;SDS011;60103;51.014;16.992;2023-04-27T03:15:04;12.80;;;4.60;;
72198;SDS011;60103;51.014;16.992;2023-04-27T03:17:36;13.40;;;4.70;;
72198;SDS011;60103;51.014;16.992;2023-04-27T03:20:06;13.30;;;5.30;;
72198;SDS011;60103;51.014;16.992;2023-04-27T03:22:37;16.90;;;6.00;;
72198;SDS011;60103;51.014;16.992;2023-04-27T03:25:06;12.50;;;4.70;;
72198;SDS011;60103;51.014;16.992;2023-04-27T03:27:35;10.30;;;4.30;;
72198;SDS011;60103;51.014;16.992;2023-04-27T03:30:04;10.70;;;3.90;;
72198;SDS011;60103;51.014;16.992;2023-04-27T03:32:34;11.00;;;4.30;;
72198;SDS011;60103;51.014;16.992;2023-04-27T03:35:04;14.60;;;4.40;;
72198;SDS011;60103;51.014;16.992;2023-04-27T03:37:33;11.50;;;4.50;;
72198;SDS011;60103;51.014;16.992;2023-04-27T03:40:02;11.50;;;4.30;;
72198;SDS011;60103;51.014;16.992;2023-04-27T03:42:34;11.60;;;4.40;;
72198;SDS011;60103;51.014;16.992;2023-04-27T03:45:04;12.10;;;3.60;;
72198;SDS011;60103;51.014;16.992;2023-04-27T03:47:34;12.20;;;4.00;;
72198;SDS011;60103;51.014;16.992;2023-04-27T03:50:03;11.20;;;3.70;;
72198;SDS011;60103;51.014;16.992;2023-04-27T03:52:32;13.10;;;4.10;;
72198;SDS011;60103;51.014;16.992;2023-04-27T03:55:04;10.40;;;3.80;;
72198;SDS011;60103;51.014;16.992;2023-04-27T03:57:34;10.80;;;3.80;;
72198;SDS011;60103;51.014;16.992;2023-04-27T04:00:03;11.40;;;3.50;;
72198;SDS011;60103;51.014;16.992;2023-04-27T04:02:41;11.70;;;4.10;;
72198;SDS011;60103;51.014;16.992;2023-04-27T04:05:10;9.30;;;3.20;;
72198;SDS011;60103;51.014;16.992;2023-04-27T04:07:42;11.50;;;4.40;;
72198;SDS011;60103;51.014;16.992;2023-04-27T04:10:11;12.50;;;5.20;;
72198;SDS011;60103;51.014;16.992;2023-04-27T04:12:41;11.90;;;3.80;;
72198;SDS011;60103;51.014;16.992;2023-04-27T04:15:10;11.30;;;4.00;;
72198;SDS011;60103;51.014;16.992;2023-04-27T04:17:40;16.70;;;4.60;;
72198;SDS011;60103;51.014;16.992;2023-04-27T04:20:08;13.50;;;4.20;;
72198;SDS011;60103;51.014;16.992;2023-04-27T04:22:38;11.70;;;3.60;;
72198;SDS011;60103;51.014;16.992;2023-04-27T04:25:07;12.40;;;4.30;;
72198;SDS011;60103;51.014;16.992;2023-04-27T04:27:36;11.80;;;3.90;;
72198;SDS011;60103;51.014;16.992;2023-04-27T04:30:06;15.60;;;4.70;;
72198;SDS011;60103;51.014;16.992;2023-04-27T04:32:36;15.00;;;3.70;;
72198;SDS011;60103;51.014;16.992;2023-04-27T04:35:07;14.90;;;5.10;;
72198;SDS011;60103;51.014;16.992;2023-04-27T04:37:36;16.20;;;5.30;;
72198;SDS011;60103;51.014;16.992;2023-04-27T04:40:05;12.30;;;4.50;;
72198;SDS011;60103;51.014;16.992;2023-04-27T04:42:38;13.90;;;5.00;;
72198;SDS011;60103;51.014;16.992;2023-04-27T04:45:08;14.20;;;3.70;;
72198;SDS011;60103;51.014;16.992;2023-04-27T04:47:38;12.10;;;3.90;;
72198;SDS011;60103;51.014;16.992;2023-04-27T04:50:07;9.40;;;3.20;;
72198;SDS011;60103;51.014;16.992;2023-04-27T04:52:37;15.30;;;4.10;;
72198;SDS011;60103;51.014;16.992;2023-04-27T04:55:07;16.70;;;4.00;;
72198;SDS011;60103;51.014;16.992;2023-04-27T04:57:36;13.30;;;3.90;;
72198;SDS011;60103;51.014;16.992;2023-04-27T05:00:06;13.10;;;4.00;;
72198;SDS011;60103;51.014;16.992;2023-04-27T05:02:45;10.20;;;3.90;;
72198;SDS011;60103;51.014;16.992;2023-04-27T05:05:15;9.70;;;3.50;;
72198;SDS011;60103;51.014;16.992;2023-04-27T05:07:44;13.80;;;4.50;;
72198;SDS011;60103;51.014;16.992;2023-04-27T05:10:13;10.60;;;4.10;;
72198;SDS011;60103;51.014;16.992;2023-04-27T05:12:43;9.80;;;3.90;;
72198;SDS011;60103;51.014;16.992;2023-04-27T05:15:12;9.00;;;3.60;;
72198;SDS011;60103;51.014;16.992;2023-04-27T05:17:41;12.20;;;4.20;;
72198;SDS011;60103;51.014;16.992;2023-04-27T05:20:11;14.10;;;4.20;;
72198;SDS011;60103;51.014;16.992;2023-04-27T05:22:40;14.80;;;4.20;;
72198;SDS011;60103;51.014;16.992;2023-04-27T05:25:08;11.70;;;4.40;;
72198;SDS011;60103;51.014;16.992;2023-04-27T05:27:37;10.10;;;3.60;;
72198;SDS011;60103;51.014;16.992;2023-04-27T05:30:07;12.00;;;3.90;;
72198;SDS011;60103;51.014;16.992;2023-04-27T05:32:38;13.20;;;4.10;;
72198;SDS011;60103;51.014;16.992;2023-04-27T05:35:07;12.40;;;3.90;;
72198;SDS011;60103;51.014;16.992;2023-04-27T05:37:37;14.00;;;4.50;;
72198;SDS011;60103;51.014;16.992;2023-04-27T05:40:07;10.80;;;3.80;;
72198;SDS011;60103;51.014;16.992;2023-04-27T05:42:36;10.90;;;4.10;;
72198;SDS011;60103;51.014;16.992;2023-04-27T05:45:06;14.10;;;4.00;;
72198;SDS011;60103;51.014;16.992;2023-04-27T05:47:37;10.90;;;3.20;;
72198;SDS011;60103;51.014;16.992;2023-04-27T05:50:06;13.10;;;4.00;;
72198;SDS011;60103;51.014;16.992;2023-04-27T05:52:36;12.70;;;4.10;;
72198;SDS011;60103;51.014;16.992;2023-04-27T05:55:06;11.90;;;4.00;;
72198;SDS011;60103;51.014;16.992;2023-04-27T05:57:35;8.70;;;3.10;;
72198;SDS011;60103;51.014;16.992;2023-04-27T06:00:05;11.60;;;3.40;;
72198;SDS011;60103;51.014;16.992;2023-04-27T06:02:40;13.50;;;4.40;;
72198;SDS011;60103;51.014;16.992;2023-04-27T06:05:09;12.90;;;3.90;;
72198;SDS011;60103;51.014;16.992;2023-04-27T06:07:39;10.80;;;3.70;;
72198;SDS011;60103;51.014;16.992;2023-04-27T06:10:09;11.50;;;3.70;;
72198;SDS011;60103;51.014;16.992;2023-04-27T06:12:39;10.50;;;3.50;;
72198;SDS011;60103;51.014;16.992;2023-04-27T06:15:08;9.40;;;3.30;;
72198;SDS011;60103;51.014;16.992;2023-04-27T06:17:38;9.80;;;3.80;;
72198;SDS011;60103;51.014;16.992;2023-04-27T06:20:07;9.70;;;3.30;;
72198;SDS011;60103;51.014;16.992;2023-04-27T06:22:37;11.00;;;3.40;;
72198;SDS011;60103;51.014;16.992;2023-04-27T06:25:06;10.70;;;3.10;;
72198;SDS011;60103;51.014;16.992;2023-04-27T06:27:36;9.50;;;3.30;;
72198;SDS011;60103;51.014;16.992;2023-04-27T06:30:06;12.40;;;3.60;;
72198;SDS011;60103;51.014;16.992;2023-04-27T06:32:35;9.40;;;3.20;;
72198;SDS011;60103;51.014;16.992;2023-04-27T06:35:04;22.50;;;3.90;;
72198;SDS011;60103;51.014;16.992;2023-04-27T06:37:34;11.00;;;3.10;;
72198;SDS011;60103;51.014;16.992;2023-04-27T06:40:03;11.70;;;3.50;;
72198;SDS011;60103;51.014;16.992;2023-04-27T06:42:33;9.90;;;3.20;;
72198;SDS011;60103;51.014;16.992;2023-04-27T06:45:02;13.40;;;3.30;;
72198;SDS011;60103;51.014;16.992;2023-04-27T06:47:33;8.60;;;2.40;;
72198;SDS011;60103;51.014;16.992;2023-04-27T06:50:02;7.90;;;2.30;;
72198;SDS011;60103;51.014;16.992;2023-04-27T06:52:31;8.70;;;2.60;;
72198;SDS011;60103;51.014;16.992;2023-04-27T06:55:01;9.80;;;3.10;;
72198;SDS011;60103;51.014;16.992;2023-04-27T06:57:30;10.40;;;3.30;;
72198;SDS011;60103;51.014;16.992;2023-04-27T06:59:59;8.80;;;3.10;;
72198;SDS011;60103;51.014;16.992;2023-04-27T07:02:28;9.50;;;2.50;;
72198;SDS011;60103;51.014;16.992;2023-04-27T07:04:58;8.10;;;2.20;;
72198;SDS011;60103;51.014;16.992;2023-04-27T07:07:27;8.50;;;2.10;;
72198;SDS011;60103;51.014;16.992;2023-04-27T07:09:57;10.90;;;2.60;;
72198;SDS011;60103;51.014;16.992;2023-04-27T07:12:26;9.40;;;2.80;;
72198;SDS011;60103;51.014;16.992;2023-04-27T07:14:55;10.20;;;3.50;;
72198;SDS011;60103;51.014;16.992;2023-04-27T07:17:24;9.30;;;2.80;;
72198;SDS011;60103;51.014;16.992;2023-04-27T07:19:53;11.10;;;3.10;;
72198;SDS011;60103;51.014;16.992;2023-04-27T07:22:22;8.40;;;2.40;;
72198;SDS011;60103;51.014;16.992;2023-04-27T07:24:51;7.20;;;1.90;;
72198;SDS011;60103;51.014;16.992;2023-04-27T07:27:20;9.60;;;2.80;;
72198;SDS011;60103;51.014;16.992;2023-04-27T07:29:49;8.60;;;2.30;;
72198;SDS011;60103;51.014;16.992;2023-04-27T07:32:18;8.80;;;2.30;;
72198;SDS011;60103;51.014;16.992;2023-04-27T07:34:48;6.00;;;1.90;;
72198;SDS011;60103;51.014;16.992;2023-04-27T07:37:21;7.40;;;1.90;;
72198;SDS011;60103;51.014;16.992;2023-04-27T07:39:51;6.80;;;1.70;;
72198;SDS011;60103;51.014;16.992;2023-04-27T07:42:21;7.40;;;1.60;;
72198;SDS011;60103;51.014;16.992;2023-04-27T07:44:50;8.20;;;1.80;;
72198;SDS011;60103;51.014;16.992;2023-04-27T07:47:19;7.20;;;2.20;;
72198;SDS011;60103;51.014;16.992;2023-04-27T07:49:49;7.60;;;1.70;;
72198;SDS011;60103;51.014;16.992;2023-04-27T07:52:18;9.50;;;2.10;;
72198;SDS011;60103;51.014;16.992;2023-04-27T07:54:47;6.90;;;2.00;;
72198;SDS011;60103;51.014;16.992;2023-04-27T07:57:16;9.70;;;2.40;;
72198;SDS011;60103;51.014;16.992;2023-04-27T07:59:45;6.30;;;1.90;;
72198;SDS011;60103;51.014;16.992;2023-04-27T08:02:17;8.50;;;2.60;;
72198;SDS011;60103;51.014;16.992;2023-04-27T08:04:48;8.10;;;1.80;;
72198;SDS011;60103;51.014;16.992;2023-04-27T08:07:18;6.60;;;1.70;;
72198;SDS011;60103;51.014;16.992;2023-04-27T08:09:49;8.20;;;2.10;;
72198;SDS011;60103;51.014;16.992;2023-04-27T08:12:19;8.30;;;2.00;;
72198;SDS011;60103;51.014;16.992;2023-04-27T08:14:49;8.80;;;2.50;;
72198;SDS011;60103;51.014;16.992;2023-04-27T08:17:18;6.70;;;1.80;;
72198;SDS011;60103;51.014;16.992;2023-04-27T08:19:49;9.80;;;2.30;;
72198;SDS011;60103;51.014;16.992;2023-04-27T08:22:18;6.30;;;1.40;;
72198;SDS011;60103;51.014;16.992;2023-04-27T08:24:47;6.50;;;1.40;;
72198;SDS011;60103;51.014;16.992;2023-04-27T08:27:17;7.70;;;1.90;;
72198;SDS011;60103;51.014;16.992;2023-04-27T08:29:47;6.90;;;2.30;;
72198;SDS011;60103;51.014;16.992;2023-04-27T08:32:17;6.70;;;2.00;;
72198;SDS011;60103;51.014;16.992;2023-04-27T08:34:46;10.90;;;2.50;;
72198;SDS011;60103;51.014;16.992;2023-04-27T08:37:14;8.50;;;2.40;;
72198;SDS011;60103;51.014;16.992;2023-04-27T08:39:45;9.40;;;2.40;;
72198;SDS011;60103;51.014;16.992;2023-04-27T08:42:14;7.70;;;2.20;;
72198;SDS011;60103;51.014;16.992;2023-04-27T08:44:44;9.30;;;1.90;;
72198;SDS011;60103;51.014;16.992;2023-04-27T08:47:14;8.60;;;2.70;;
72198;SDS011;60103;51.014;16.992;2023-04-27T08:49:43;8.60;;;2.60;;
72198;SDS011;60103;51.014;16.992;2023-04-27T08:52:12;7.40;;;2.30;;
72198;SDS011;60103;51.014;16.992;2023-04-27T08:54:42;7.60;;;2.50;;
72198;SDS011;60103;51.014;16.992;2023-04-27T08:57:12;10.20;;;2.90;;
72198;SDS011;60103;51.014;16.992;2023-04-27T08:59:41;9.70;;;2.70;;
72198;SDS011;60103;51.014;16.992;2023-04-27T09:02:17;10.40;;;3.60;;
72198;SDS011;60103;51.014;16.992;2023-04-27T09:04:47;10.80;;;2.70;;
72198;SDS011;60103;51.014;16.992;2023-04-27T09:07:21;8.10;;;2.70;;
72198;SDS011;60103;51.014;16.992;2023-04-27T09:10:00;10.40;;;3.30;;
72198;SDS011;60103;51.014;16.992;2023-04-27T09:12:31;9.00;;;2.50;;
72198;SDS011;60103;51.014;16.992;2023-04-27T09:15:01;7.70;;;2.30;;
72198;SDS011;60103;51.014;16.992;2023-04-27T09:17:36;8.70;;;2.70;;
72198;SDS011;60103;51.014;16.992;2023-04-27T09:20:07;9.80;;;3.10;;
72198;SDS011;60103;51.014;16.992;2023-04-27T09:27:59;7.90;;;2.60;;
72198;SDS011;60103;51.014;16.992;2023-04-27T09:30:28;10.50;;;3.00;;
72198;SDS011;60103;51.014;16.992;2023-04-27T09:32:58;7.80;;;2.70;;
72198;SDS011;60103;51.014;16.992;2023-04-27T09:35:31;12.20;;;3.50;;
72198;SDS011;60103;51.014;16.992;2023-04-27T09:38:01;9.40;;;3.40;;
72198;SDS011;60103;51.014;16.992;2023-04-27T09:40:30;9.60;;;2.50;;
72198;SDS011;60103;51.014;16.992;2023-04-27T09:42:59;9.00;;;3.20;;
72198;SDS011;60103;51.014;16.992;2023-04-27T09:45:34;10.60;;;3.20;;
72198;SDS011;60103;51.014;16.992;2023-04-27T09:48:04;10.30;;;3.30;;
72198;SDS011;60103;51.014;16.992;2023-04-27T09:50:37;9.80;;;3.50;;
72198;SDS011;60103;51.014;16.992;2023-04-27T09:53:09;9.90;;;3.10;;
72198;SDS011;60103;51.014;16.992;2023-04-27T10:09:38;10.00;;;3.70;;
72198;SDS011;60103;51.014;16.992;2023-04-27T10:14:55;9.40;;;3.00;;
72198;SDS011;60103;51.014;16.992;2023-04-27T10:17:49;9.00;;;3.20;;
72198;SDS011;60103;51.014;16.992;2023-04-27T10:20:31;10.50;;;3.60;;
72198;SDS011;60103;51.014;16.992;2023-04-27T10:23:03;11.00;;;3.30;;
72198;SDS011;60103;51.014;16.992;2023-04-27T10:25:36;9.10;;;3.60;;
72198;SDS011;60103;51.014;16.992;2023-04-27T10:28:13;12.10;;;3.80;;
72198;SDS011;60103;51.014;16.992;2023-04-27T10:30:44;10.60;;;3.50;;
72198;SDS011;60103;51.014;16.992;2023-04-27T10:33:17;9.80;;;3.60;;
72198;SDS011;60103;51.014;16.992;2023-04-27T10:35:55;9.70;;;3.40;;
72198;SDS011;60103;51.014;16.992;2023-04-27T10:38:29;8.80;;;3.30;;
72198;SDS011;60103;51.014;16.992;2023-04-27T10:41:00;10.50;;;3.30;;
72198;SDS011;60103;51.014;16.992;2023-04-27T10:43:33;10.60;;;3.50;;
72198;SDS011;60103;51.014;16.992;2023-04-27T10:46:10;11.70;;;4.10;;
72198;SDS011;60103;51.014;16.992;2023-04-27T10:48:43;12.00;;;4.20;;
72198;SDS011;60103;51.014;16.992;2023-04-27T10:51:16;9.90;;;3.70;;
72198;SDS011;60103;51.014;16.992;2023-04-27T10:53:45;10.10;;;3.30;;
72198;SDS011;60103;51.014;16.992;2023-04-27T10:56:20;10.60;;;4.40;;
72198;SDS011;60103;51.014;16.992;2023-04-27T10:58:49;12.20;;;4.50;;
72198;SDS011;60103;51.014;16.992;2023-04-27T11:01:24;10.70;;;4.10;;
72198;SDS011;60103;51.014;16.992;2023-04-27T11:03:57;11.10;;;3.70;;
72198;SDS011;60103;51.014;16.992;2023-04-27T11:06:27;8.80;;;3.30;;
72198;SDS011;60103;51.014;16.992;2023-04-27T11:08:57;10.90;;;3.70;;
72198;SDS011;60103;51.014;16.992;2023-04-27T11:11:27;9.40;;;3.40;;
72198;SDS011;60103;51.014;16.992;2023-04-27T11:13:56;8.70;;;3.30;;
72198;SDS011;60103;51.014;16.992;2023-04-27T11:16:25;8.40;;;2.60;;
72198;SDS011;60103;51.014;16.992;2023-04-27T11:18:54;9.30;;;2.70;;
72198;SDS011;60103;51.014;16.992;2023-04-27T11:21:26;7.00;;;2.60;;
72198;SDS011;60103;51.014;16.992;2023-04-27T11:23:55;10.00;;;2.80;;
72198;SDS011;60103;51.014;16.992;2023-04-27T11:26:25;7.20;;;2.50;;
72198;SDS011;60103;51.014;16.992;2023-04-27T11:28:57;6.90;;;2.50;;
72198;SDS011;60103;51.014;16.992;2023-04-27T11:31:44;8.00;;;3.00;;
72198;SDS011;60103;51.014;16.992;2023-04-27T11:34:19;9.40;;;3.30;;
72198;SDS011;60103;51.014;16.992;2023-04-27T11:36:57;10.40;;;3.60;;
72198;SDS011;60103;51.014;16.992;2023-04-27T11:39:45;8.60;;;2.30;;
72198;SDS011;60103;51.014;16.992;2023-04-27T11:42:18;9.30;;;2.70;;
72198;SDS011;60103;51.014;16.992;2023-04-27T11:44:52;8.40;;;2.70;;
72198;SDS011;60103;51.014;16.992;2023-04-27T11:47:23;8.10;;;2.90;;
72198;SDS011;60103;51.014;16.992;2023-04-27T11:49:55;9.80;;;2.90;;
72198;SDS011;60103;51.014;16.992;2023-04-27T11:52:28;11.80;;;3.80;;
72198;SDS011;60103;51.014;16.992;2023-04-27T11:55:00;10.40;;;3.50;;
72198;SDS011;60103;51.014;16.992;2023-04-27T11:57:32;7.80;;;2.80;;
72198;SDS011;60103;51.014;16.992;2023-04-27T12:00:03;9.60;;;3.90;;
72198;SDS011;60103;51.014;16.992;2023-04-27T12:02:43;11.50;;;4.00;;
72198;SDS011;60103;51.014;16.992;2023-04-27T12:05:12;10.80;;;3.20;;
72198;SDS011;60103;51.014;16.992;2023-04-27T12:07:41;10.50;;;3.20;;
72198;SDS011;60103;51.014;16.992;2023-04-27T12:10:10;10.40;;;3.30;;
72198;SDS011;60103;51.014;16.992;2023-04-27T12:12:39;11.00;;;4.20;;
72198;SDS011;60103;51.014;16.992;2023-04-27T12:15:09;10.50;;;3.60;;
72198;SDS011;60103;51.014;16.992;2023-04-27T12:17:38;11.60;;;4.20;;
72198;SDS011;60103;51.014;16.992;2023-04-27T12:20:07;9.60;;;3.10;;
72198;SDS011;60103;51.014;16.992;2023-04-27T12:22:37;10.60;;;4.00;;
72198;SDS011;60103;51.014;16.992;2023-04-27T12:25:06;11.60;;;4.70;;
72198;SDS011;60103;51.014;16.992;2023-04-27T12:27:35;9.20;;;3.70;;
72198;SDS011;60103;51.014;16.992;2023-04-27T12:30:04;9.70;;;3.30;;
72198;SDS011;60103;51.014;16.992;2023-04-27T12:32:33;9.80;;;4.20;;
72198;SDS011;60103;51.014;16.992;2023-04-27T12:35:03;11.40;;;4.30;;
72198;SDS011;60103;51.014;16.992;2023-04-27T12:37:33;10.50;;;4.50;;
72198;SDS011;60103;51.014;16.992;2023-04-27T12:40:02;10.10;;;4.20;;
72198;SDS011;60103;51.014;16.992;2023-04-27T12:42:35;9.50;;;4.00;;
72198;SDS011;60103;51.014;16.992;2023-04-27T12:45:04;10.30;;;3.90;;
72198;SDS011;60103;51.014;16.992;2023-04-27T12:47:36;7.80;;;3.10;;
72198;SDS011;60103;51.014;16.992;2023-04-27T12:50:24;8.40;;;3.00;;
72198;SDS011;60103;51.014;16.992;2023-04-27T12:52:53;9.10;;;3.60;;
72198;SDS011;60103;51.014;16.992;2023-04-27T12:55:22;8.90;;;3.50;;
72198;SDS011;60103;51.014;16.992;2023-04-27T12:57:58;9.10;;;3.20;;
72198;SDS011;60103;51.014;16.992;2023-04-27T13:00:28;9.70;;;3.40;;
72198;SDS011;60103;51.014;16.992;2023-04-27T13:02:57;9.70;;;2.70;;
72198;SDS011;60103;51.014;16.992;2023-04-27T13:05:32;8.40;;;2.20;;
72198;SDS011;60103;51.014;16.992;2023-04-27T13:08:01;8.00;;;2.70;;
72198;SDS011;60103;51.014;16.992;2023-04-27T13:10:30;6.50;;;2.10;;
72198;SDS011;60103;51.014;16.992;2023-04-27T13:12:59;10.40;;;2.90;;
72198;SDS011;60103;51.014;16.992;2023-04-27T13:15:29;7.50;;;2.40;;
72198;SDS011;60103;51.014;16.992;2023-04-27T13:17:59;8.40;;;2.70;;
72198;SDS011;60103;51.014;16.992;2023-04-27T13:20:29;7.00;;;2.20;;
72198;SDS011;60103;51.014;16.992;2023-04-27T13:22:58;7.80;;;2.40;;
72198;SDS011;60103;51.014;16.992;2023-04-27T13:25:26;8.80;;;2.40;;
72198;SDS011;60103;51.014;16.992;2023-04-27T13:27:58;7.70;;;2.40;;
72198;SDS011;60103;51.014;16.992;2023-04-27T13:30:28;10.60;;;3.40;;
72198;SDS011;60103;51.014;16.992;2023-04-27T13:32:57;7.30;;;2.30;;
72198;SDS011;60103;51.014;16.992;2023-04-27T13:35:47;8.60;;;2.50;;
72198;SDS011;60103;51.014;16.992;2023-04-27T13:38:17;7.90;;;2.80;;
72198;SDS011;60103;51.014;16.992;2023-04-27T13:40:47;7.70;;;2.80;;
72198;SDS011;60103;51.014;16.992;2023-04-27T13:43:17;11.40;;;3.30;;
72198;SDS011;60103;51.014;16.992;2023-04-27T13:45:46;8.10;;;3.00;;
72198;SDS011;60103;51.014;16.992;2023-04-27T13:48:17;9.10;;;3.00;;
72198;SDS011;60103;51.014;16.992;2023-04-27T13:50:46;9.80;;;3.20;;
72198;SDS011;60103;51.014;16.992;2023-04-27T13:53:16;8.70;;;2.80;;
72198;SDS011;60103;51.014;16.992;2023-04-27T13:55:47;10.30;;;3.20;;
72198;SDS011;60103;51.014;16.992;2023-04-27T13:58:17;9.90;;;4.00;;
72198;SDS011;60103;51.014;16.992;2023-04-27T14:00:46;7.90;;;2.70;;
72198;SDS011;60103;51.014;16.992;2023-04-27T14:03:16;8.50;;;2.70;;
72198;SDS011;60103;51.014;16.992;2023-04-27T14:05:49;9.90;;;3.30;;
72198;SDS011;60103;51.014;16.992;2023-04-27T14:08:22;9.70;;;3.50;;
72198;SDS011;60103;51.014;16.992;2023-04-27T14:10:51;11.70;;;3.70;;
72198;SDS011;60103;51.014;16.992;2023-04-27T14:13:22;9.20;;;3.70;;
72198;SDS011;60103;51.014;16.992;2023-04-27T14:16:01;9.10;;;3.70;;
72198;SDS011;60103;51.014;16.992;2023-04-27T14:18:44;8.30;;;3.40;;
72198;SDS011;60103;51.014;16.992;2023-04-27T14:21:13;8.40;;;3.40;;
72198;SDS011;60103;51.014;16.992;2023-04-27T14:23:42;9.00;;;3.10;;
72198;SDS011;60103;51.014;16.992;2023-04-27T14:26:11;10.70;;;3.80;;
72198;SDS011;60103;51.014;16.992;2023-04-27T14:28:41;11.00;;;3.90;;
72198;SDS011;60103;51.014;16.992;2023-04-27T14:31:09;9.10;;;2.90;;
72198;SDS011;60103;51.014;16.992;2023-04-27T14:33:39;10.00;;;3.10;;
72198;SDS011;60103;51.014;16.992;2023-04-27T14:36:10;8.00;;;3.10;;
72198;SDS011;60103;51.014;16.992;2023-04-27T14:38:40;10.00;;;3.20;;
72198;SDS011;60103;51.014;16.992;2023-04-27T14:41:18;8.90;;;3.30;;
72198;SDS011;60103;51.014;16.992;2023-04-27T14:43:53;9.40;;;3.30;;
72198;SDS011;60103;51.014;16.992;2023-04-27T14:46:28;10.20;;;3.60;;
72198;SDS011;60103;51.014;16.992;2023-04-27T14:49:02;12.40;;;4.10;;
72198;SDS011;60103;51.014;16.992;2023-04-27T14:51:42;10.20;;;3.40;;
72198;SDS011;60103;51.014;16.992;2023-04-27T14:54:18;13.10;;;3.70;;
72198;SDS011;60103;51.014;16.992;2023-04-27T14:56:52;9.30;;;3.50;;
72198;SDS011;60103;51.014;16.992;2023-04-27T14:59:28;10.80;;;3.50;;
72198;SDS011;60103;51.014;16.992;2023-04-27T15:01:58;10.70;;;4.00;;
72198;SDS011;60103;51.014;16.992;2023-04-27T15:04:29;9.30;;;3.50;;
72198;SDS011;60103;51.014;16.992;2023-04-27T15:06:58;9.50;;;3.50;;